Time;durP1;ratioP1;P1;durP2;ratioP2;P2;SDS_P1;SDS_P2;PMS_P1;PMS_P2;Temp;Humidity;BMP_temperature;BMP_pressure;BME280_temperature;BME280_humidity;BME280_pressure;Samples;Min_cycle;Max_cycle;Signal;HPM_P1;HPM_P2
2023/07/29 00:01:01;;;;;;;2.40;2.20;;;;;;;;;;5114329;28;20051;-82
2023/07/29 00:03:30;;;;;;;2.40;2.20;;;;;;;;;;5096422;28;20084;-83
2023/07/29 00:05:57;;;;;;;3.60;2.08;;;;;;;;;;5100728;28;20039;-83
2023/07/29 00:08:25;;;;;;;2.33;2.13;;;;;;;;;;5118233;28;20568;-83
2023/07/29 00:10:52;;;;;;;5.00;2.10;;;;;;;;;;5099650;28;20044;-82
2023/07/29 00:13:19;;;;;;;1.83;1.73;;;;;;;;;;5100150;28;20259;-82
2023/07/29 00:15:48;;;;;;;3.47;2.22;;;;;;;;;;5118072;28;20043;-83
2023/07/29 00:18:16;;;;;;;2.47;1.85;;;;;;;;;;5117449;28;20047;-83
2023/07/29 00:20:43;;;;;;;1.88;1.77;;;;;;;;;;5117018;28;20040;-83
2023/07/29 00:23:10;;;;;;;4.07;1.92;;;;;;;;;;5099216;28;20093;-82
2023/07/29 00:25:37;;;;;;;3.15;2.17;;;;;;;;;;5116268;28;20116;-83
2023/07/29 00:28:05;;;;;;;1.92;1.83;;;;;;;;;;5116191;28;20052;-83
2023/07/29 00:30:32;;;;;;;2.53;2.30;;;;;;;;;;5115689;28;20079;-82
2023/07/29 00:32:59;;;;;;;4.65;2.47;;;;;;;;;;5115939;28;20048;-82
2023/07/29 00:35:26;;;;;;;2.03;1.60;;;;;;;;;;5096959;28;20521;-82
2023/07/29 00:37:53;;;;;;;2.53;2.00;;;;;;;;;;5096658;28;20051;-83
2023/07/29 00:40:21;;;;;;;2.72;2.10;;;;;;;;;;5115067;28;20051;-82
2023/07/29 00:42:50;;;;;;;4.45;2.60;;;;;;;;;;5096570;28;20073;-82
2023/07/29 00:45:17;;;;;;;1.77;1.67;;;;;;;;;;5096233;28;20172;-82
2023/07/29 00:47:44;;;;;;;2.60;2.40;;;;;;;;;;5096177;28;20060;-82
2023/07/29 00:50:13;;;;;;;2.45;2.28;;;;;;;;;;5113712;28;20457;-81
2023/07/29 00:52:40;;;;;;;1.95;1.80;;;;;;;;;;5113469;28;20319;-82
2023/07/29 00:55:08;;;;;;;2.40;2.20;;;;;;;;;;5095805;28;20458;-81
2023/07/29 00:57:35;;;;;;;2.08;1.98;;;;;;;;;;5095007;28;20097;-81
2023/07/29 01:00:04;;;;;;;2.25;2.15;;;;;;;;;;5113254;28;20048;-81
2023/07/29 01:02:32;;;;;;;2.20;2.10;;;;;;;;;;5095501;28;20396;-82
2023/07/29 01:05:00;;;;;;;2.63;2.10;;;;;;;;;;5115505;28;20055;-83
2023/07/29 01:07:34;;;;;;;2.75;2.45;;;;;;;;;;5097117;28;20096;-82
2023/07/29 01:10:01;;;;;;;;;;;;;;;;;;5098090;28;20479;-83
2023/07/29 01:12:47;;;;;;;3.95;2.38;;;;;;;;;;5097174;28;19988;-83
2023/07/29 01:15:22;;;;;;;2.65;2.55;;;;;;;;;;5115232;28;20047;-82
2023/07/29 01:17:53;;;;;;;4.35;2.47;;;;;;;;;;5096898;28;20059;-82
2023/07/29 01:20:20;;;;;;;2.85;2.40;;;;;;;;;;5097014;28;20432;-82
2023/07/29 01:22:47;;;;;;;2.45;2.35;;;;;;;;;;5114784;28;20556;-83
2023/07/29 01:25:15;;;;;;;2.63;2.53;;;;;;;;;;5097128;28;20062;-83
2023/07/29 01:27:46;;;;;;;2.50;2.40;;;;;;;;;;5096501;28;20086;-81
2023/07/29 01:30:13;;;;;;;2.40;2.30;;;;;;;;;;5096689;28;20043;-83
2023/07/29 01:32:50;;;;;;;3.95;2.63;;;;;;;;;;5097205;28;20421;-83
2023/07/29 01:35:30;;;;;;;2.65;2.45;;;;;;;;;;5096972;28;20043;-83
2023/07/29 01:38:00;;;;;;;2.45;2.33;;;;;;;;;;5096218;28;20051;-82
2023/07/29 01:40:28;;;;;;;2.42;2.30;;;;;;;;;;5096790;28;20075;-82
2023/07/29 01:42:56;;;;;;;3.33;2.90;;;;;;;;;;5117565;28;20047;-83
2023/07/29 01:45:26;;;;;;;3.78;2.20;;;;;;;;;;5098295;28;20105;-84
2023/07/29 01:47:53;;;;;;;8.52;3.15;;;;;;;;;;5097913;28;20054;-83
2023/07/29 01:50:21;;;;;;;6.32;3.30;;;;;;;;;;5115147;28;20058;-83
2023/07/29 01:52:48;;;;;;;5.15;3.83;;;;;;;;;;5097218;28;20419;-83
2023/07/29 01:55:15;;;;;;;5.78;4.20;;;;;;;;;;5115663;28;20108;-83
2023/07/29 01:57:44;;;;;;;3.60;3.40;;;;;;;;;;5096266;28;20052;-83
2023/07/29 02:00:12;;;;;;;6.32;3.83;;;;;;;;;;5096018;28;20048;-83
2023/07/29 02:02:39;;;;;;;3.90;3.67;;;;;;;;;;5114093;28;20047;-83
2023/07/29 02:05:06;;;;;;;6.35;3.55;;;;;;;;;;5113985;28;20043;-83
2023/07/29 02:07:33;;;;;;;3.75;3.58;;;;;;;;;;5095512;28;20457;-83
2023/07/29 02:10:01;;;;;;;4.05;3.10;;;;;;;;;;5113890;28;20116;-83
2023/07/29 02:12:28;;;;;;;4.30;3.75;;;;;;;;;;5095830;28;20044;-82
2023/07/29 02:14:55;;;;;;;4.85;4.38;;;;;;;;;;5095870;28;20051;-83
2023/07/29 02:17:22;;;;;;;3.60;3.30;;;;;;;;;;5114043;28;20464;-83
2023/07/29 02:19:50;;;;;;;4.35;3.95;;;;;;;;;;5113678;28;20553;-83
2023/07/29 02:22:17;;;;;;;4.68;3.75;;;;;;;;;;5095718;28;20128;-82
2023/07/29 02:24:45;;;;;;;3.88;3.33;;;;;;;;;;5112902;28;20060;-81
2023/07/29 02:27:12;;;;;;;3.40;3.17;;;;;;;;;;5094444;28;20553;-82
2023/07/29 02:29:39;;;;;;;4.45;3.92;;;;;;;;;;5094499;28;20043;-82
2023/07/29 02:32:06;;;;;;;5.53;3.97;;;;;;;;;;5094651;28;20052;-83
2023/07/29 02:34:34;;;;;;;3.70;3.38;;;;;;;;;;5094382;28;20058;-82
2023/07/29 02:37:01;;;;;;;4.25;3.30;;;;;;;;;;5094182;28;20047;-82
2023/07/29 02:39:28;;;;;;;9.00;3.28;;;;;;;;;;5112187;28;20101;-82
2023/07/29 02:41:58;;;;;;;5.47;3.83;;;;;;;;;;5094207;28;20096;-81
2023/07/29 02:44:25;;;;;;;6.30;3.63;;;;;;;;;;5112174;28;20048;-82
2023/07/29 02:46:54;;;;;;;6.40;3.40;;;;;;;;;;5112115;28;20039;-82
2023/07/29 02:49:21;;;;;;;4.85;3.85;;;;;;;;;;5093995;28;20499;-82
2023/07/29 02:51:49;;;;;;;3.17;3.00;;;;;;;;;;5112275;28;20097;-82
2023/07/29 02:54:16;;;;;;;8.45;3.97;;;;;;;;;;5094340;28;20051;-82
2023/07/29 02:56:43;;;;;;;4.38;3.40;;;;;;;;;;5096325;28;20050;-83
2023/07/29 02:59:10;;;;;;;3.72;3.47;;;;;;;;;;5098321;28;20071;-83
2023/07/29 03:01:38;;;;;;;3.25;3.05;;;;;;;;;;5116405;28;20133;-83
2023/07/29 03:04:05;;;;;;;3.70;3.47;;;;;;;;;;5116352;28;20093;-83
2023/07/29 03:06:32;;;;;;;4.30;3.80;;;;;;;;;;5098241;28;20396;-83
2023/07/29 03:08:59;;;;;;;4.25;3.88;;;;;;;;;;5116091;28;20039;-83
2023/07/29 03:11:27;;;;;;;3.70;3.50;;;;;;;;;;5097944;28;20043;-83
2023/07/29 03:13:54;;;;;;;3.60;3.25;;;;;;;;;;5116143;28;20043;-83
2023/07/29 03:16:22;;;;;;;8.82;4.15;;;;;;;;;;5098201;28;20051;-83
2023/07/29 03:18:49;;;;;;;3.92;3.20;;;;;;;;;;5120606;28;20053;-84
2023/07/29 03:21:16;;;;;;;4.38;4.07;;;;;;;;;;5102197;28;20047;-83
2023/07/29 03:23:44;;;;;;;4.07;3.78;;;;;;;;;;5100997;28;20051;-83
2023/07/29 03:26:11;;;;;;;3.90;3.70;;;;;;;;;;5099949;28;20048;-84
2023/07/29 03:28:40;;;;;;;4.65;4.25;;;;;;;;;;5118960;28;20048;-83
2023/07/29 03:31:07;;;;;;;6.45;3.65;;;;;;;;;;5100015;28;20047;-83
2023/07/29 03:33:35;;;;;;;4.45;3.35;;;;;;;;;;5118171;28;20048;-83
2023/07/29 03:36:02;;;;;;;8.70;3.90;;;;;;;;;;5099015;28;20061;-82
2023/07/29 03:38:29;;;;;;;6.25;3.70;;;;;;;;;;5117065;28;20048;-83
2023/07/29 03:40:58;;;;;;;4.93;3.83;;;;;;;;;;5116414;28;20051;-83
2023/07/29 03:43:25;;;;;;;4.20;3.80;;;;;;;;;;5098163;28;20055;-83
2023/07/29 03:45:52;;;;;;;7.82;3.20;;;;;;;;;;5116419;28;20051;-83
2023/07/29 03:48:19;;;;;;;3.80;3.20;;;;;;;;;;5117242;28;20116;-83
2023/07/29 03:50:46;;;;;;;5.90;3.45;;;;;;;;;;5116632;28;20043;-83
2023/07/29 03:53:14;;;;;;;5.97;3.10;;;;;;;;;;5098059;28;20044;-83
2023/07/29 03:55:41;;;;;;;4.50;3.60;;;;;;;;;;5115830;28;20108;-81
2023/07/29 03:58:08;;;;;;;3.60;3.40;;;;;;;;;;5116223;28;20058;-83
2023/07/29 04:00:35;;;;;;;6.00;3.45;;;;;;;;;;5115568;28;20415;-82
2023/07/29 04:03:02;;;;;;;5.05;3.08;;;;;;;;;;5096146;28;20051;-82
2023/07/29 04:05:30;;;;;;;3.17;3.08;;;;;;;;;;5114219;28;20126;-82
2023/07/29 04:07:57;;;;;;;3.45;2.88;;;;;;;;;;5113692;28;20055;-82
2023/07/29 04:10:24;;;;;;;3.03;2.92;;;;;;;;;;5095787;28;20112;-82
2023/07/29 04:12:51;;;;;;;4.53;4.22;;;;;;;;;;5113846;28;20052;-83
2023/07/29 04:15:19;;;;;;;6.03;3.20;;;;;;;;;;5096096;28;20059;-83
2023/07/29 04:17:46;;;;;;;3.10;3.00;;;;;;;;;;5114052;28;20466;-82
2023/07/29 04:20:13;;;;;;;3.47;3.10;;;;;;;;;;5095908;28;20104;-82
2023/07/29 04:22:41;;;;;;;3.00;2.70;;;;;;;;;;5096034;28;20404;-83
2023/07/29 04:25:08;;;;;;;3.05;2.78;;;;;;;;;;5095822;28;20044;-82
2023/07/29 04:27:35;;;;;;;2.40;2.30;;;;;;;;;;5113728;28;20048;-83
2023/07/29 04:30:02;;;;;;;2.80;2.38;;;;;;;;;;5095640;28;20047;-82
2023/07/29 04:32:30;;;;;;;2.78;2.58;;;;;;;;;;5095924;28;20127;-81
2023/07/29 04:34:57;;;;;;;2.40;2.30;;;;;;;;;;5095800;28;20054;-81
2023/07/29 04:37:24;;;;;;;2.28;2.17;;;;;;;;;;5095668;28;20116;-81
2023/07/29 04:39:52;;;;;;;4.60;2.30;;;;;;;;;;5113531;28;20058;-82
2023/07/29 04:42:19;;;;;;;2.30;2.20;;;;;;;;;;5113723;28;20055;-82
2023/07/29 04:44:46;;;;;;;2.10;2.00;;;;;;;;;;5096026;28;20047;-82
2023/07/29 04:47:13;;;;;;;3.05;1.90;;;;;;;;;;5095127;28;20040;-82
2023/07/29 04:49:40;;;;;;;4.10;1.60;;;;;;;;;;5095782;28;20051;-82
2023/07/29 04:52:08;;;;;;;3.25;1.58;;;;;;;;;;5095289;28;20096;-81
2023/07/29 04:54:35;;;;;;;3.72;1.45;;;;;;;;;;5098358;28;20127;-84
2023/07/29 04:57:02;;;;;;;1.50;1.40;;;;;;;;;;5096813;28;20044;-83
2023/07/29 04:59:29;;;;;;;1.75;1.00;;;;;;;;;;5097714;28;20044;-84
2023/07/29 05:01:57;;;;;;;1.35;1.00;;;;;;;;;;5114959;28;20048;-80
2023/07/29 05:04:24;;;;;;;1.08;0.98;;;;;;;;;;5096826;28;20091;-82
2023/07/29 05:06:51;;;;;;;1.13;1.10;;;;;;;;;;5096699;28;20047;-81
2023/07/29 05:09:22;;;;;;;1.88;1.00;;;;;;;;;;5115955;28;20043;-81
2023/07/29 05:11:49;;;;;;;0.70;0.70;;;;;;;;;;5095944;28;20054;-80
2023/07/29 05:14:17;;;;;;;1.08;0.90;;;;;;;;;;5096900;28;20168;-82
2023/07/29 05:16:45;;;;;;;1.45;1.10;;;;;;;;;;5095865;28;20096;-82
2023/07/29 05:19:12;;;;;;;0.85;0.70;;;;;;;;;;5113445;28;20116;-80
2023/07/29 05:21:40;;;;;;;1.70;0.80;;;;;;;;;;5095934;28;20457;-84
2023/07/29 05:24:07;;;;;;;1.88;0.80;;;;;;;;;;5095588;28;20052;-80
2023/07/29 05:26:34;;;;;;;1.20;0.70;;;;;;;;;;5113370;28;20075;-82
2023/07/29 05:29:03;;;;;;;0.80;0.80;;;;;;;;;;5095355;28;20189;-80
2023/07/29 05:31:31;;;;;;;0.90;0.90;;;;;;;;;;5113920;28;20527;-82
2023/07/29 05:33:58;;;;;;;2.63;0.93;;;;;;;;;;5112860;28;20044;-84
2023/07/29 05:36:25;;;;;;;0.95;0.95;;;;;;;;;;5096354;28;20058;-82
2023/07/29 05:38:53;;;;;;;2.75;1.30;;;;;;;;;;5097954;28;20066;-84
2023/07/29 05:41:20;;;;;;;1.90;1.77;;;;;;;;;;5116246;28;20127;-81
2023/07/29 05:43:47;;;;;;;4.32;1.70;;;;;;;;;;5096928;28;20104;-82
2023/07/29 05:46:15;;;;;;;2.65;1.48;;;;;;;;;;5095517;28;20164;-80
2023/07/29 05:48:42;;;;;;;1.50;1.40;;;;;;;;;;5113704;28;20052;-82
2023/07/29 05:51:09;;;;;;;2.97;1.73;;;;;;;;;;5096374;28;20052;-81
2023/07/29 05:53:36;;;;;;;1.40;1.40;;;;;;;;;;5095891;28;20043;-82
2023/07/29 05:56:04;;;;;;;1.10;1.10;;;;;;;;;;5095860;28;20044;-82
2023/07/29 05:58:31;;;;;;;1.40;1.40;;;;;;;;;;5096317;28;20055;-81
2023/07/29 06:00:59;;;;;;;1.17;1.17;;;;;;;;;;5113406;28;20051;-81
2023/07/29 06:03:26;;;;;;;1.65;1.17;;;;;;;;;;5094749;28;20048;-82
2023/07/29 06:05:54;;;;;;;1.40;1.30;;;;;;;;;;5094428;28;20050;-81
2023/07/29 06:08:22;;;;;;;1.30;1.30;;;;;;;;;;5113188;28;20497;-80
2023/07/29 06:10:49;;;;;;;4.28;2.10;;;;;;;;;;5112948;28;20055;-81
2023/07/29 06:13:17;;;;;;;4.00;2.55;;;;;;;;;;5112178;28;20043;-79
2023/07/29 06:15:44;;;;;;;1.90;1.75;;;;;;;;;;5094271;28;20469;-83
2023/07/29 06:18:11;;;;;;;4.97;2.67;;;;;;;;;;5095791;28;20104;-83
2023/07/29 06:20:38;;;;;;;2.90;2.80;;;;;;;;;;5114269;28;20051;-83
2023/07/29 06:23:06;;;;;;;2.72;2.50;;;;;;;;;;5096359;28;20187;-83
2023/07/29 06:25:33;;;;;;;2.13;2.03;;;;;;;;;;5095086;28;20052;-84
2023/07/29 06:28:00;;;;;;;2.55;2.10;;;;;;;;;;5094500;28;20100;-82
2023/07/29 06:30:27;;;;;;;2.15;1.30;;;;;;;;;;5101730;28;20483;-83
2023/07/29 06:32:54;;;;;;;1.17;1.17;;;;;;;;;;5103028;28;20050;-83
2023/07/29 06:35:22;;;;;;;2.63;1.00;;;;;;;;;;5103642;28;20055;-82
2023/07/29 06:37:49;;;;;;;1.27;1.23;;;;;;;;;;5102168;28;20044;-82
2023/07/29 06:40:16;;;;;;;1.20;1.20;;;;;;;;;;5102011;28;20059;-80
2023/07/29 06:42:43;;;;;;;1.08;1.08;;;;;;;;;;5120199;28;20058;-82
2023/07/29 06:45:11;;;;;;;1.38;1.17;;;;;;;;;;5102606;28;20047;-82
2023/07/29 06:47:38;;;;;;;0.80;0.80;;;;;;;;;;5101231;28;20040;-81
2023/07/29 06:50:06;;;;;;;0.80;0.80;;;;;;;;;;5119026;28;20071;-83
2023/07/29 06:52:33;;;;;;;1.75;0.70;;;;;;;;;;5100768;28;20043;-83
2023/07/29 06:55:00;;;;;;;0.73;0.50;;;;;;;;;;5099970;28;20044;-82
2023/07/29 06:57:28;;;;;;;1.42;0.60;;;;;;;;;;5100282;28;20048;-82
2023/07/29 06:59:55;;;;;;;0.93;0.45;;;;;;;;;;5099983;28;20061;-82
2023/07/29 07:02:22;;;;;;;0.65;0.50;;;;;;;;;;5099552;28;20495;-81
2023/07/29 07:04:49;;;;;;;1.00;0.57;;;;;;;;;;5099363;28;20047;-82
2023/07/29 07:07:17;;;;;;;0.73;0.73;;;;;;;;;;5099339;28;20048;-82
2023/07/29 07:09:44;;;;;;;1.27;0.60;;;;;;;;;;5098805;28;20198;-80
2023/07/29 07:12:11;;;;;;;0.75;0.50;;;;;;;;;;5099115;28;20130;-82
2023/07/29 07:14:38;;;;;;;0.50;0.50;;;;;;;;;;5099754;28;20052;-81
2023/07/29 07:17:06;;;;;;;1.33;0.50;;;;;;;;;;5098731;28;20473;-82
2023/07/29 07:19:33;;;;;;;0.52;0.50;;;;;;;;;;5098855;28;20043;-82
2023/07/29 07:22:00;;;;;;;1.00;0.45;;;;;;;;;;5098444;28;20047;-82
2023/07/29 07:24:27;;;;;;;0.38;0.38;;;;;;;;;;5098677;28;20473;-80
2023/07/29 07:26:54;;;;;;;0.47;0.45;;;;;;;;;;5095151;28;20051;-81
2023/07/29 07:29:22;;;;;;;0.40;0.40;;;;;;;;;;5095067;28;20090;-81
2023/07/29 07:31:53;;;;;;;0.25;0.25;;;;;;;;;;5093671;28;20040;-83
2023/07/29 07:34:21;;;;;;;1.98;0.30;;;;;;;;;;5095788;28;20052;-81
2023/07/29 07:36:48;;;;;;;0.30;0.30;;;;;;;;;;5093932;28;20089;-80
2023/07/29 07:39:16;;;;;;;0.98;0.30;;;;;;;;;;5094752;28;20398;-83
2023/07/29 07:41:43;;;;;;;0.47;0.22;;;;;;;;;;5093368;28;20101;-80
2023/07/29 07:44:12;;;;;;;0.30;0.30;;;;;;;;;;5094612;28;20052;-83
2023/07/29 07:46:39;;;;;;;0.88;0.30;;;;;;;;;;5095136;28;20044;-80
2023/07/29 07:49:07;;;;;;;0.40;0.40;;;;;;;;;;5095926;28;20083;-82
2023/07/29 07:51:35;;;;;;;1.88;0.50;;;;;;;;;;5095313;28;20161;-82
2023/07/29 07:54:02;;;;;;;0.47;0.43;;;;;;;;;;5097698;28;20052;-82
2023/07/29 07:56:29;;;;;;;2.38;0.40;;;;;;;;;;5094813;28;20511;-85
2023/07/29 07:58:56;;;;;;;0.65;0.40;;;;;;;;;;5094270;28;20052;-82
2023/07/29 08:01:24;;;;;;;0.38;0.38;;;;;;;;;;5094906;28;20117;-85
2023/07/29 08:03:51;;;;;;;0.75;0.40;;;;;;;;;;5094181;28;20435;-81
2023/07/29 08:06:19;;;;;;;1.42;0.60;;;;;;;;;;5096575;28;20076;-84
2023/07/29 08:08:46;;;;;;;0.52;0.52;;;;;;;;;;5098704;28;20048;-85
2023/07/29 08:11:13;;;;;;;0.60;0.60;;;;;;;;;;5098354;28;20044;-84
2023/07/29 08:13:40;;;;;;;1.20;0.70;;;;;;;;;;5099190;28;20051;-83
2023/07/29 08:16:08;;;;;;;0.80;0.80;;;;;;;;;;5097792;28;20545;-83
2023/07/29 08:18:35;;;;;;;0.90;0.70;;;;;;;;;;5096570;28;20056;-81
2023/07/29 08:21:05;;;;;;;1.40;1.02;;;;;;;;;;5097357;28;20043;-82
2023/07/29 08:23:34;;;;;;;2.30;0.90;;;;;;;;;;5096620;28;20047;-82
2023/07/29 08:26:02;;;;;;;0.90;0.90;;;;;;;;;;5108109;28;20055;-83
2023/07/29 08:28:29;;;;;;;0.90;0.90;;;;;;;;;;5098946;28;20108;-81
2023/07/29 08:30:57;;;;;;;1.00;1.00;;;;;;;;;;5098518;28;20426;-82
2023/07/29 08:33:25;;;;;;;1.30;0.93;;;;;;;;;;5097879;28;20059;-82
2023/07/29 08:35:52;;;;;;;1.00;1.00;;;;;;;;;;5098209;28;20461;-83
2023/07/29 08:38:20;;;;;;;1.05;1.05;;;;;;;;;;5115415;28;20480;-83
2023/07/29 08:41:14;;;;;;;1.25;1.25;;;;;;;;;;5097315;28;20059;-80
2023/07/29 08:43:48;;;;;;;1.00;1.00;;;;;;;;;;5059775;28;20050;-83
2023/07/29 08:46:16;;;;;;;1.10;1.10;;;;;;;;;;5096925;28;20050;-81
2023/07/29 08:48:44;;;;;;;1.70;1.20;;;;;;;;;;5096917;28;20109;-82
2023/07/29 08:51:11;;;;;;;1.10;1.10;;;;;;;;;;5096977;28;20043;-83
2023/07/29 08:53:39;;;;;;;1.52;1.35;;;;;;;;;;5096059;28;20428;-82
2023/07/29 08:56:07;;;;;;;2.80;1.40;;;;;;;;;;5096950;28;20111;-81
2023/07/29 08:58:35;;;;;;;1.52;1.10;;;;;;;;;;5114346;28;20420;-83
2023/07/29 09:01:02;;;;;;;1.92;1.10;;;;;;;;;;5113889;28;20059;-82
2023/07/29 09:03:30;;;;;;;1.33;1.20;;;;;;;;;;5095747;28;20071;-82
2023/07/29 09:05:58;;;;;;;1.40;1.40;;;;;;;;;;5095812;28;20044;-84
2023/07/29 09:08:28;;;;;;;1.60;1.08;;;;;;;;;;5095453;28;20116;-82
2023/07/29 09:10:56;;;;;;;1.27;1.17;;;;;;;;;;5095791;28;20047;-82
2023/07/29 09:13:23;;;;;;;2.08;1.25;;;;;;;;;;5095869;28;20632;-84
2023/07/29 09:15:54;;;;;;;1.38;1.13;;;;;;;;;;5113920;28;20097;-83
2023/07/29 09:18:22;;;;;;;1.13;1.00;;;;;;;;;;5096110;28;20040;-84
2023/07/29 09:20:50;;;;;;;1.23;1.13;;;;;;;;;;5113511;28;20045;-81
2023/07/29 09:23:17;;;;;;;0.93;0.93;;;;;;;;;;5114526;28;20047;-83
2023/07/29 09:25:46;;;;;;;2.15;1.08;;;;;;;;;;5113686;28;20576;-83
2023/07/29 09:28:14;;;;;;;1.05;0.98;;;;;;;;;;5095840;28;20051;-84
2023/07/29 09:30:43;;;;;;;0.93;0.90;;;;;;;;;;5096200;28;20048;-81
2023/07/29 09:33:10;;;;;;;2.53;1.25;;;;;;;;;;5095997;28;20092;-84
2023/07/29 09:35:38;;;;;;;2.47;1.15;;;;;;;;;;5113916;28;20059;-81
2023/07/29 09:38:06;;;;;;;1.30;0.90;;;;;;;;;;5095105;28;20043;-83
2023/07/29 09:40:37;;;;;;;1.17;1.10;;;;;;;;;;5095859;28;20083;-83
2023/07/29 09:43:05;;;;;;;1.20;1.10;;;;;;;;;;5117364;28;20526;-83
2023/07/29 09:45:34;;;;;;;2.92;1.30;;;;;;;;;;5117465;28;20572;-83
2023/07/29 09:48:04;;;;;;;1.30;1.20;;;;;;;;;;5116533;28;20047;-82
2023/07/29 09:50:32;;;;;;;1.58;1.35;;;;;;;;;;5099342;28;20491;-83
2023/07/29 09:52:59;;;;;;;3.08;1.17;;;;;;;;;;5098699;28;20079;-84
2023/07/29 09:55:27;;;;;;;1.20;1.10;;;;;;;;;;5097667;28;20469;-83
2023/07/29 09:58:02;;;;;;;1.38;1.38;;;;;;;;;;5115443;28;20054;-83
2023/07/29 10:00:30;;;;;;;2.28;1.25;;;;;;;;;;5097091;28;20074;-84
2023/07/29 10:02:58;;;;;;;1.65;1.20;;;;;;;;;;5097201;28;20054;-81
2023/07/29 10:05:29;;;;;;;1.35;1.25;;;;;;;;;;5099504;28;20062;-83
2023/07/29 10:07:57;;;;;;;2.05;1.10;;;;;;;;;;5100682;28;20496;-81
2023/07/29 10:10:24;;;;;;;1.98;1.40;;;;;;;;;;5119072;28;20058;-81
2023/07/29 10:12:52;;;;;;;1.10;1.10;;;;;;;;;;5100052;28;20043;-84
2023/07/29 10:15:21;;;;;;;2.22;1.17;;;;;;;;;;5118078;28;20048;-79
2023/07/29 10:17:48;;;;;;;1.15;1.10;;;;;;;;;;5117593;28;20044;-82
2023/07/29 10:20:16;;;;;;;2.15;1.48;;;;;;;;;;5100320;28;20047;-82
2023/07/29 10:22:46;;;;;;;2.28;1.30;;;;;;;;;;5117738;28;20055;-81
2023/07/29 10:25:16;;;;;;;1.10;1.00;;;;;;;;;;5118253;28;20499;-82
2023/07/29 10:27:47;;;;;;;0.90;0.90;;;;;;;;;;5102556;28;20072;-83
2023/07/29 10:30:14;;;;;;;6.43;1.33;;;;;;;;;;5101915;28;20112;-83
2023/07/29 10:32:45;;;;;;;1.08;1.00;;;;;;;;;;5102049;28;20077;-82
2023/07/29 10:35:16;;;;;;;1.10;1.00;;;;;;;;;;5101199;28;20547;-82
2023/07/29 10:37:45;;;;;;;2.80;1.00;;;;;;;;;;5118869;28;20067;-83
2023/07/29 10:40:12;;;;;;;4.07;1.58;;;;;;;;;;5100191;28;20522;-83
2023/07/29 10:42:59;;;;;;;1.45;1.35;;;;;;;;;;5098374;28;20052;-81
2023/07/29 10:45:26;;;;;;;1.40;1.30;;;;;;;;;;5099765;28;20051;-82
2023/07/29 10:47:53;;;;;;;1.23;1.23;;;;;;;;;;5099968;28;20044;-82
2023/07/29 10:50:22;;;;;;;1.17;1.08;;;;;;;;;;5099434;28;20531;-82
2023/07/29 10:52:50;;;;;;;1.38;1.20;;;;;;;;;;5117473;28;20047;-82
2023/07/29 10:55:25;;;;;;;1.23;1.13;;;;;;;;;;5099650;28;20048;-82
2023/07/29 10:57:52;;;;;;;4.25;1.25;;;;;;;;;;5117337;28;20558;-84
2023/07/29 11:00:21;;;;;;;1.48;1.20;;;;;;;;;;5099166;28;20048;-83
2023/07/29 11:02:57;;;;;;;2.28;1.10;;;;;;;;;;5116772;28;20499;-81
2023/07/29 11:05:24;;;;;;;1.05;0.90;;;;;;;;;;5098667;28;20044;-83
2023/07/29 11:07:51;;;;;;;1.60;0.80;;;;;;;;;;5098206;28;20461;-83
2023/07/29 11:10:19;;;;;;;2.03;0.82;;;;;;;;;;5098308;28;20187;-82
2023/07/29 11:12:54;;;;;;;0.93;0.93;;;;;;;;;;5116496;28;20109;-81
2023/07/29 11:15:26;;;;;;;1.73;0.50;;;;;;;;;;5116050;28;20415;-81
2023/07/29 11:17:54;;;;;;;0.82;0.60;;;;;;;;;;5115447;28;20047;-84
2023/07/29 11:20:23;;;;;;;1.35;0.70;;;;;;;;;;5119914;28;20423;-84
2023/07/29 11:22:50;;;;;;;1.40;0.60;;;;;;;;;;5118422;28;20104;-84
2023/07/29 11:25:18;;;;;;;0.75;0.50;;;;;;;;;;5097282;28;20056;-82
2023/07/29 11:27:46;;;;;;;2.22;0.70;;;;;;;;;;5096799;28;20628;-84
2023/07/29 11:30:14;;;;;;;0.80;0.50;;;;;;;;;;5098820;28;20097;-81
2023/07/29 11:32:43;;;;;;;0.60;0.60;;;;;;;;;;5098226;28;20113;-83
2023/07/29 11:35:12;;;;;;;0.50;0.50;;;;;;;;;;5099910;28;20449;-84
2023/07/29 11:37:40;;;;;;;0.75;0.50;;;;;;;;;;5098608;28;20052;-84
2023/07/29 11:40:10;;;;;;;1.95;0.70;;;;;;;;;;5098658;28;20080;-83
2023/07/29 11:42:38;;;;;;;0.75;0.57;;;;;;;;;;5097237;28;20048;-81
2023/07/29 11:45:09;;;;;;;0.50;0.47;;;;;;;;;;5098784;28;20101;-84
2023/07/29 11:47:37;;;;;;;0.80;0.55;;;;;;;;;;5097053;28;20055;-82
2023/07/29 11:50:13;;;;;;;0.63;0.63;;;;;;;;;;5097707;28;20132;-80
2023/07/29 11:52:45;;;;;;;0.68;0.60;;;;;;;;;;5095775;28;20044;-82
2023/07/29 11:55:14;;;;;;;1.33;0.70;;;;;;;;;;5097305;28;20056;-78
2023/07/29 11:57:41;;;;;;;1.75;0.60;;;;;;;;;;5096399;28;20052;-82
2023/07/29 12:00:10;;;;;;;4.28;1.38;;;;;;;;;;5096721;28;20048;-84
2023/07/29 12:02:39;;;;;;;1.25;0.65;;;;;;;;;;5098123;28;20400;-83
2023/07/29 12:05:07;;;;;;;0.70;0.70;;;;;;;;;;5097903;28;20044;-84
2023/07/29 12:07:34;;;;;;;0.40;0.40;;;;;;;;;;5096744;28;20496;-81
2023/07/29 12:10:03;;;;;;;0.50;0.50;;;;;;;;;;5096384;28;20048;-82
2023/07/29 12:12:30;;;;;;;0.65;0.50;;;;;;;;;;5098187;28;20044;-84
2023/07/29 12:14:58;;;;;;;3.70;0.75;;;;;;;;;;5096691;28;20055;-79
2023/07/29 12:17:25;;;;;;;0.93;0.70;;;;;;;;;;5095918;28;20048;-82
2023/07/29 12:19:55;;;;;;;0.47;0.38;;;;;;;;;;5095689;28;20105;-81
2023/07/29 12:22:22;;;;;;;1.85;0.50;;;;;;;;;;5095422;28;20138;-83
2023/07/29 12:24:52;;;;;;;2.50;0.70;;;;;;;;;;5096102;28;20056;-81
2023/07/29 12:27:23;;;;;;;2.17;0.50;;;;;;;;;;5098218;28;20089;-81
2023/07/29 12:29:52;;;;;;;0.50;0.50;;;;;;;;;;5098723;28;20043;-82
2023/07/29 12:32:19;;;;;;;0.95;0.60;;;;;;;;;;5116720;28;20081;-81
2023/07/29 12:34:47;;;;;;;5.63;0.82;;;;;;;;;;5097991;28;20538;-81
2023/07/29 12:37:14;;;;;;;1.08;0.60;;;;;;;;;;5097991;28;20078;-80
2023/07/29 12:39:42;;;;;;;0.50;0.50;;;;;;;;;;5116543;28;20518;-80
2023/07/29 12:42:10;;;;;;;0.52;0.52;;;;;;;;;;5116953;28;20048;-82
2023/07/29 12:44:38;;;;;;;2.78;0.63;;;;;;;;;;5098630;28;20097;-82
2023/07/29 12:47:06;;;;;;;0.98;0.60;;;;;;;;;;5115747;28;20048;-82
2023/07/29 12:49:33;;;;;;;0.40;0.40;;;;;;;;;;5115847;28;20092;-83
2023/07/29 12:52:00;;;;;;;0.55;0.50;;;;;;;;;;5097913;28;20040;-81
2023/07/29 12:54:28;;;;;;;1.65;0.50;;;;;;;;;;5097781;28;20476;-82
2023/07/29 12:56:55;;;;;;;2.08;0.50;;;;;;;;;;5118417;28;20044;-81
2023/07/29 12:59:22;;;;;;;1.20;0.63;;;;;;;;;;5101831;28;20096;-83
2023/07/29 13:01:49;;;;;;;1.77;0.47;;;;;;;;;;5099880;28;20044;-83
2023/07/29 13:04:16;;;;;;;0.40;0.40;;;;;;;;;;5099321;28;20044;-83
2023/07/29 13:06:44;;;;;;;0.73;0.50;;;;;;;;;;5117907;28;20050;-86
2023/07/29 13:09:11;;;;;;;1.75;0.50;;;;;;;;;;5099158;28;20048;-80
2023/07/29 13:11:38;;;;;;;0.93;0.57;;;;;;;;;;5117158;28;20113;-81
2023/07/29 13:14:05;;;;;;;0.40;0.40;;;;;;;;;;5098515;28;20418;-84
2023/07/29 13:16:33;;;;;;;0.68;0.55;;;;;;;;;;5097708;28;20043;-83
2023/07/29 13:19:00;;;;;;;0.50;0.38;;;;;;;;;;5097336;28;20495;-79
2023/07/29 13:21:27;;;;;;;0.60;0.60;;;;;;;;;;5115592;28;20047;-79
2023/07/29 13:23:54;;;;;;;1.13;0.60;;;;;;;;;;5115517;28;20047;-81
2023/07/29 13:26:22;;;;;;;0.40;0.40;;;;;;;;;;5115032;28;20055;-82
2023/07/29 13:28:49;;;;;;;0.50;0.50;;;;;;;;;;5096758;28;20051;-84
2023/07/29 13:31:16;;;;;;;0.40;0.40;;;;;;;;;;5096944;28;20044;-84
2023/07/29 13:33:44;;;;;;;0.40;0.40;;;;;;;;;;5096329;28;20040;-84
2023/07/29 13:36:11;;;;;;;0.93;0.50;;;;;;;;;;5096462;28;20047;-82
2023/07/29 13:38:38;;;;;;;1.63;0.63;;;;;;;;;;5096266;28;20047;-82
2023/07/29 13:41:05;;;;;;;1.52;0.60;;;;;;;;;;5096054;28;20055;-82
2023/07/29 13:43:33;;;;;;;1.65;0.50;;;;;;;;;;5098323;28;20531;-82
2023/07/29 13:46:00;;;;;;;0.50;0.50;;;;;;;;;;5116577;28;20048;-81
2023/07/29 13:48:27;;;;;;;0.65;0.63;;;;;;;;;;5096154;28;20135;-82
2023/07/29 13:50:54;;;;;;;1.23;0.60;;;;;;;;;;5114936;28;20112;-83
2023/07/29 13:53:22;;;;;;;2.47;2.28;;;;;;;;;;5096857;28;20100;-81
2023/07/29 13:55:49;;;;;;;0.55;0.55;;;;;;;;;;5096349;28;20071;-83
2023/07/29 13:58:16;;;;;;;4.80;4.40;;;;;;;;;;5096053;28;20096;-80
2023/07/29 14:00:43;;;;;;;1.73;1.63;;;;;;;;;;5095759;28;20449;-82
2023/07/29 14:03:11;;;;;;;2.05;1.30;;;;;;;;;;5096539;28;20101;-81
2023/07/29 14:05:38;;;;;;;1.40;0.60;;;;;;;;;;5096510;28;20104;-80
2023/07/29 14:08:05;;;;;;;2.25;2.15;;;;;;;;;;5114006;28;20511;-81
2023/07/29 14:10:32;;;;;;;1.58;0.68;;;;;;;;;;5095411;28;20101;-81
2023/07/29 14:13:00;;;;;;;0.55;0.55;;;;;;;;;;5095596;28;20091;-81
2023/07/29 14:15:28;;;;;;;2.60;2.40;;;;;;;;;;5095300;28;20468;-81
2023/07/29 14:17:55;;;;;;;5.43;1.92;;;;;;;;;;5095323;28;20533;-81
2023/07/29 14:20:22;;;;;;;4.68;1.20;;;;;;;;;;5095179;28;20064;-80
2023/07/29 14:22:50;;;;;;;2.00;1.85;;;;;;;;;;5094771;28;20055;-81
2023/07/29 14:25:18;;;;;;;0.77;0.77;;;;;;;;;;5113200;28;20105;-85
2023/07/29 14:27:45;;;;;;;0.60;0.60;;;;;;;;;;5094620;28;20044;-82
2023/07/29 14:30:12;;;;;;;3.17;1.42;;;;;;;;;;5113376;28;20044;-81
2023/07/29 14:32:39;;;;;;;0.80;0.80;;;;;;;;;;5094316;28;20048;-80
2023/07/29 14:35:07;;;;;;;1.23;1.10;;;;;;;;;;5098385;28;20082;-84
2023/07/29 14:37:35;;;;;;;1.67;1.58;;;;;;;;;;5099097;28;20078;-83
2023/07/29 14:40:02;;;;;;;1.23;1.20;;;;;;;;;;5100029;28;20047;-84
2023/07/29 14:42:30;;;;;;;2.30;1.45;;;;;;;;;;5116924;28;20439;-81
2023/07/29 14:45:00;;;;;;;2.05;1.95;;;;;;;;;;5117571;28;20051;-83
2023/07/29 14:47:27;;;;;;;1.70;1.60;;;;;;;;;;5117161;28;20048;-82